sensor_id;sensor_type;location;lat;lon;timestamp;temperature;humidity
21592;DHT22;10958;50.892;3.992;2023-07-24T00:00:08;20.00;99.90
21592;DHT22;10958;50.892;3.992;2023-07-24T00:02:36;20.10;99.90
21592;DHT22;10958;50.892;3.992;2023-07-24T00:05:04;20.00;99.90
21592;DHT22;10958;50.892;3.992;2023-07-24T00:07:30;19.70;99.90
21592;DHT22;10958;50.892;3.992;2023-07-24T00:09:56;19.80;99.90
21592;DHT22;10958;50.892;3.992;2023-07-24T00:12:22;19.60;99.90
21592;DHT22;10958;50.892;3.992;2023-07-24T00:14:49;19.70;99.90
21592;DHT22;10958;50.892;3.992;2023-07-24T00:17:15;19.80;99.90
21592;DHT22;10958;50.892;3.992;2023-07-24T00:19:41;19.80;99.90
21592;DHT22;10958;50.892;3.992;2023-07-24T00:22:07;19.70;99.90
21592;DHT22;10958;50.892;3.992;2023-07-24T00:24:33;19.70;99.90
21592;DHT22;10958;50.892;3.992;2023-07-24T00:26:59;19.50;99.90
21592;DHT22;10958;50.892;3.992;2023-07-24T00:29:25;19.60;99.90
21592;DHT22;10958;50.892;3.992;2023-07-24T00:31:51;19.70;99.90
21592;DHT22;10958;50.892;3.992;2023-07-24T00:34:16;19.70;99.90
21592;DHT22;10958;50.892;3.992;2023-07-24T00:36:42;19.80;99.90
21592;DHT22;10958;50.892;3.992;2023-07-24T00:39:10;19.70;99.90
21592;DHT22;10958;50.892;3.992;2023-07-24T00:41:36;19.90;99.90
21592;DHT22;10958;50.892;3.992;2023-07-24T00:44:02;19.90;99.90
21592;DHT22;10958;50.892;3.992;2023-07-24T00:46:28;20.00;99.90
21592;DHT22;10958;50.892;3.992;2023-07-24T00:49:01;20.10;99.90
21592;DHT22;10958;50.892;3.992;2023-07-24T00:51:27;20.10;99.90
21592;DHT22;10958;50.892;3.992;2023-07-24T00:54:00;19.90;99.90
21592;DHT22;10958;50.892;3.992;2023-07-24T00:56:26;19.90;99.90
21592;DHT22;10958;50.892;3.992;2023-07-24T00:58:54;20.10;99.90
21592;DHT22;10958;50.892;3.992;2023-07-24T01:01:24;20.00;99.90
21592;DHT22;10958;50.892;3.992;2023-07-24T01:03:51;19.70;99.90
21592;DHT22;10958;50.892;3.992;2023-07-24T01:06:18;19.40;99.90
21592;DHT22;10958;50.892;3.992;2023-07-24T01:08:43;19.20;99.90
21592;DHT22;10958;50.892;3.992;2023-07-24T01:11:16;19.10;99.90
21592;DHT22;10958;50.892;3.992;2023-07-24T01:14:13;19.00;99.90
21592;DHT22;10958;50.892;3.992;2023-07-24T01:16:42;18.80;99.90
21592;DHT22;10958;50.892;3.992;2023-07-24T01:19:34;18.80;99.90
21592;DHT22;10958;50.892;3.992;2023-07-24T01:22:16;18.90;99.90
21592;DHT22;10958;50.892;3.992;2023-07-24T01:25:18;18.90;99.90
21592;DHT22;10958;50.892;3.992;2023-07-24T01:27:47;18.80;99.90
21592;DHT22;10958;50.892;3.992;2023-07-24T01:30:16;18.80;99.90
21592;DHT22;10958;50.892;3.992;2023-07-24T01:32:42;18.90;99.90
21592;DHT22;10958;50.892;3.992;2023-07-24T01:35:08;18.90;99.90
21592;DHT22;10958;50.892;3.992;2023-07-24T01:37:34;19.00;99.90
21592;DHT22;10958;50.892;3.992;2023-07-24T01:40:02;19.00;99.90
21592;DHT22;10958;50.892;3.992;2023-07-24T01:42:28;19.00;99.90
21592;DHT22;10958;50.892;3.992;2023-07-24T01:44:55;18.90;99.90
21592;DHT22;10958;50.892;3.992;2023-07-24T01:47:21;18.80;99.90
21592;DHT22;10958;50.892;3.992;2023-07-24T01:49:50;18.80;99.90
21592;DHT22;10958;50.892;3.992;2023-07-24T01:52:15;18.70;99.90
21592;DHT22;10958;50.892;3.992;2023-07-24T01:54:41;18.90;99.90
21592;DHT22;10958;50.892;3.992;2023-07-24T01:57:07;18.90;99.90
21592;DHT22;10958;50.892;3.992;2023-07-24T01:59:33;18.80;99.90
21592;DHT22;10958;50.892;3.992;2023-07-24T02:02:00;18.90;99.90
21592;DHT22;10958;50.892;3.992;2023-07-24T02:04:25;19.00;99.90
21592;DHT22;10958;50.892;3.992;2023-07-24T02:06:51;19.10;99.90
21592;DHT22;10958;50.892;3.992;2023-07-24T02:09:18;18.80;99.90
21592;DHT22;10958;50.892;3.992;2023-07-24T02:11:44;18.90;99.90
21592;DHT22;10958;50.892;3.992;2023-07-24T02:14:12;19.00;99.90
21592;DHT22;10958;50.892;3.992;2023-07-24T02:16:38;19.20;99.90
21592;DHT22;10958;50.892;3.992;2023-07-24T02:19:06;19.30;99.90
21592;DHT22;10958;50.892;3.992;2023-07-24T02:21:32;19.40;99.90
21592;DHT22;10958;50.892;3.992;2023-07-24T02:24:00;19.50;99.90
21592;DHT22;10958;50.892;3.992;2023-07-24T02:26:27;19.50;99.90
21592;DHT22;10958;50.892;3.992;2023-07-24T02:28:54;19.10;99.90
21592;DHT22;10958;50.892;3.992;2023-07-24T02:31:21;18.80;99.90
21592;DHT22;10958;50.892;3.992;2023-07-24T02:33:47;18.50;99.90
21592;DHT22;10958;50.892;3.992;2023-07-24T02:36:14;18.50;99.90
21592;DHT22;10958;50.892;3.992;2023-07-24T02:38:41;18.50;99.90
21592;DHT22;10958;50.892;3.992;2023-07-24T02:41:06;18.70;99.90
21592;DHT22;10958;50.892;3.992;2023-07-24T02:43:32;19.00;99.90
21592;DHT22;10958;50.892;3.992;2023-07-24T02:46:04;19.10;99.90
21592;DHT22;10958;50.892;3.992;2023-07-24T02:48:30;19.20;99.90
21592;DHT22;10958;50.892;3.992;2023-07-24T02:50:56;19.10;99.90
21592;DHT22;10958;50.892;3.992;2023-07-24T02:53:22;18.90;99.90
21592;DHT22;10958;50.892;3.992;2023-07-24T02:55:48;18.70;99.90
21592;DHT22;10958;50.892;3.992;2023-07-24T02:58:14;18.50;99.90
21592;DHT22;10958;50.892;3.992;2023-07-24T03:00:40;18.40;99.90
21592;DHT22;10958;50.892;3.992;2023-07-24T03:03:07;18.40;99.90
21592;DHT22;10958;50.892;3.992;2023-07-24T03:05:34;18.20;99.90
21592;DHT22;10958;50.892;3.992;2023-07-24T03:08:00;18.30;99.90
21592;DHT22;10958;50.892;3.992;2023-07-24T03:10:26;18.30;99.90
21592;DHT22;10958;50.892;3.992;2023-07-24T03:12:52;18.10;99.90
21592;DHT22;10958;50.892;3.992;2023-07-24T03:15:23;18.00;99.90
21592;DHT22;10958;50.892;3.992;2023-07-24T03:17:49;17.90;99.90
21592;DHT22;10958;50.892;3.992;2023-07-24T03:20:16;17.90;99.90
21592;DHT22;10958;50.892;3.992;2023-07-24T03:22:43;17.80;99.90
21592;DHT22;10958;50.892;3.992;2023-07-24T03:25:10;17.80;99.90
21592;DHT22;10958;50.892;3.992;2023-07-24T03:27:36;17.50;99.90
21592;DHT22;10958;50.892;3.992;2023-07-24T03:30:02;17.30;99.90
21592;DHT22;10958;50.892;3.992;2023-07-24T03:32:34;17.20;99.90
21592;DHT22;10958;50.892;3.992;2023-07-24T03:35:00;17.00;99.90
21592;DHT22;10958;50.892;3.992;2023-07-24T03:37:26;17.00;99.90
21592;DHT22;10958;50.892;3.992;2023-07-24T03:39:52;17.00;99.90
21592;DHT22;10958;50.892;3.992;2023-07-24T03:42:28;17.10;99.90
21592;DHT22;10958;50.892;3.992;2023-07-24T03:44:55;17.30;99.90
21592;DHT22;10958;50.892;3.992;2023-07-24T03:47:21;17.40;99.90
21592;DHT22;10958;50.892;3.992;2023-07-24T03:49:47;17.50;99.90
21592;DHT22;10958;50.892;3.992;2023-07-24T03:52:12;17.60;99.90
21592;DHT22;10958;50.892;3.992;2023-07-24T03:54:38;17.70;99.90
21592;DHT22;10958;50.892;3.992;2023-07-24T03:57:04;17.80;99.90
21592;DHT22;10958;50.892;3.992;2023-07-24T03:59:30;18.00;99.90
21592;DHT22;10958;50.892;3.992;2023-07-24T04:01:56;18.00;99.90
21592;DHT22;10958;50.892;3.992;2023-07-24T04:04:22;18.00;99.90
21592;DHT22;10958;50.892;3.992;2023-07-24T04:06:48;18.00;99.90
21592;DHT22;10958;50.892;3.992;2023-07-24T04:09:14;18.10;99.90
21592;DHT22;10958;50.892;3.992;2023-07-24T04:11:43;18.00;99.90
21592;DHT22;10958;50.892;3.992;2023-07-24T04:14:09;18.10;99.90
21592;DHT22;10958;50.892;3.992;2023-07-24T04:16:36;18.10;99.90
21592;DHT22;10958;50.892;3.992;2023-07-24T04:19:02;18.10;99.90
21592;DHT22;10958;50.892;3.992;2023-07-24T04:21:30;18.10;99.90
21592;DHT22;10958;50.892;3.992;2023-07-24T04:23:55;18.20;99.90
21592;DHT22;10958;50.892;3.992;2023-07-24T04:26:21;18.20;99.90
21592;DHT22;10958;50.892;3.992;2023-07-24T04:28:46;18.20;99.90
21592;DHT22;10958;50.892;3.992;2023-07-24T04:31:12;18.10;99.90
21592;DHT22;10958;50.892;3.992;2023-07-24T04:33:38;18.30;99.90
21592;DHT22;10958;50.892;3.992;2023-07-24T04:36:05;18.30;99.90
21592;DHT22;10958;50.892;3.992;2023-07-24T04:38:30;18.10;99.90
21592;DHT22;10958;50.892;3.992;2023-07-24T04:40:56;18.20;99.90
21592;DHT22;10958;50.892;3.992;2023-07-24T04:43:22;18.10;99.90
21592;DHT22;10958;50.892;3.992;2023-07-24T04:45:48;18.10;99.90
21592;DHT22;10958;50.892;3.992;2023-07-24T04:48:14;18.10;99.90
21592;DHT22;10958;50.892;3.992;2023-07-24T04:50:39;18.20;99.90
21592;DHT22;10958;50.892;3.992;2023-07-24T04:53:05;18.30;99.90
21592;DHT22;10958;50.892;3.992;2023-07-24T04:55:33;18.30;99.90
21592;DHT22;10958;50.892;3.992;2023-07-24T04:58:01;18.00;99.90
21592;DHT22;10958;50.892;3.992;2023-07-24T05:00:27;18.00;99.90
21592;DHT22;10958;50.892;3.992;2023-07-24T05:02:53;17.90;99.90
21592;DHT22;10958;50.892;3.992;2023-07-24T05:05:18;17.70;99.90
21592;DHT22;10958;50.892;3.992;2023-07-24T05:07:45;17.70;99.90
21592;DHT22;10958;50.892;3.992;2023-07-24T05:10:11;17.70;99.90
21592;DHT22;10958;50.892;3.992;2023-07-24T05:12:37;17.70;99.90
21592;DHT22;10958;50.892;3.992;2023-07-24T05:15:02;17.70;99.90
21592;DHT22;10958;50.892;3.992;2023-07-24T05:17:28;17.60;99.90
21592;DHT22;10958;50.892;3.992;2023-07-24T05:19:56;17.70;99.90
21592;DHT22;10958;50.892;3.992;2023-07-24T05:22:22;17.50;99.90
21592;DHT22;10958;50.892;3.992;2023-07-24T05:24:47;17.50;99.90
21592;DHT22;10958;50.892;3.992;2023-07-24T05:27:13;17.60;99.90
21592;DHT22;10958;50.892;3.992;2023-07-24T05:29:41;17.60;99.90
21592;DHT22;10958;50.892;3.992;2023-07-24T05:32:07;17.70;99.90
21592;DHT22;10958;50.892;3.992;2023-07-24T05:34:33;17.80;99.90
21592;DHT22;10958;50.892;3.992;2023-07-24T05:36:58;17.90;99.90
21592;DHT22;10958;50.892;3.992;2023-07-24T05:39:24;18.00;99.90
21592;DHT22;10958;50.892;3.992;2023-07-24T05:41:50;18.00;99.90
21592;DHT22;10958;50.892;3.992;2023-07-24T05:44:15;18.00;99.90
21592;DHT22;10958;50.892;3.992;2023-07-24T05:46:41;17.90;99.90
21592;DHT22;10958;50.892;3.992;2023-07-24T05:49:09;17.90;99.90
21592;DHT22;10958;50.892;3.992;2023-07-24T05:51:34;17.90;99.90
21592;DHT22;10958;50.892;3.992;2023-07-24T05:54:00;18.20;99.90
21592;DHT22;10958;50.892;3.992;2023-07-24T05:56:26;18.40;99.90
21592;DHT22;10958;50.892;3.992;2023-07-24T05:58:54;18.60;99.90
21592;DHT22;10958;50.892;3.992;2023-07-24T06:01:20;18.70;99.90
21592;DHT22;10958;50.892;3.992;2023-07-24T06:03:45;18.60;99.90
21592;DHT22;10958;50.892;3.992;2023-07-24T06:06:11;18.70;99.90
21592;DHT22;10958;50.892;3.992;2023-07-24T06:08:38;18.70;99.90
21592;DHT22;10958;50.892;3.992;2023-07-24T06:11:06;18.90;99.90
21592;DHT22;10958;50.892;3.992;2023-07-24T06:13:34;18.90;99.90
21592;DHT22;10958;50.892;3.992;2023-07-24T06:16:00;18.70;99.90
21592;DHT22;10958;50.892;3.992;2023-07-24T06:18:26;18.60;99.90
21592;DHT22;10958;50.892;3.992;2023-07-24T06:20:56;18.40;99.90
21592;DHT22;10958;50.892;3.992;2023-07-24T06:23:24;18.30;99.90
21592;DHT22;10958;50.892;3.992;2023-07-24T06:25:51;18.20;99.90
21592;DHT22;10958;50.892;3.992;2023-07-24T06:28:18;18.40;99.90
21592;DHT22;10958;50.892;3.992;2023-07-24T06:30:44;18.40;99.90
21592;DHT22;10958;50.892;3.992;2023-07-24T06:33:09;18.20;99.90
21592;DHT22;10958;50.892;3.992;2023-07-24T06:35:35;18.00;99.90
21592;DHT22;10958;50.892;3.992;2023-07-24T06:38:03;17.90;99.90
21592;DHT22;10958;50.892;3.992;2023-07-24T06:40:29;18.00;99.90
21592;DHT22;10958;50.892;3.992;2023-07-24T06:42:55;18.00;99.90
21592;DHT22;10958;50.892;3.992;2023-07-24T06:45:21;18.10;99.90
21592;DHT22;10958;50.892;3.992;2023-07-24T06:47:47;18.10;99.90
21592;DHT22;10958;50.892;3.992;2023-07-24T06:50:14;18.30;99.90
21592;DHT22;10958;50.892;3.992;2023-07-24T06:52:39;18.50;99.90
21592;DHT22;10958;50.892;3.992;2023-07-24T06:55:06;18.50;99.90
21592;DHT22;10958;50.892;3.992;2023-07-24T06:57:34;18.60;99.90
21592;DHT22;10958;50.892;3.992;2023-07-24T07:00:00;18.70;99.90
21592;DHT22;10958;50.892;3.992;2023-07-24T07:02:26;19.10;99.90
21592;DHT22;10958;50.892;3.992;2023-07-24T07:04:53;19.60;99.90
21592;DHT22;10958;50.892;3.992;2023-07-24T07:07:20;19.80;99.90
21592;DHT22;10958;50.892;3.992;2023-07-24T07:09:45;20.00;99.90
21592;DHT22;10958;50.892;3.992;2023-07-24T07:12:11;19.90;99.90
21592;DHT22;10958;50.892;3.992;2023-07-24T07:14:39;19.90;99.90
21592;DHT22;10958;50.892;3.992;2023-07-24T07:17:05;20.00;99.90
21592;DHT22;10958;50.892;3.992;2023-07-24T07:19:31;20.10;99.90
21592;DHT22;10958;50.892;3.992;2023-07-24T07:21:57;20.30;99.90
21592;DHT22;10958;50.892;3.992;2023-07-24T07:24:23;20.40;99.90
21592;DHT22;10958;50.892;3.992;2023-07-24T07:26:52;20.70;99.90
21592;DHT22;10958;50.892;3.992;2023-07-24T07:29:18;20.80;99.90
21592;DHT22;10958;50.892;3.992;2023-07-24T07:31:44;20.80;99.90
21592;DHT22;10958;50.892;3.992;2023-07-24T07:34:10;21.70;99.90
21592;DHT22;10958;50.892;3.992;2023-07-24T07:36:36;22.90;99.90
21592;DHT22;10958;50.892;3.992;2023-07-24T07:39:02;23.20;99.90
21592;DHT22;10958;50.892;3.992;2023-07-24T07:41:28;22.80;99.90
21592;DHT22;10958;50.892;3.992;2023-07-24T07:43:54;22.70;99.90
21592;DHT22;10958;50.892;3.992;2023-07-24T07:46:20;23.00;99.90
21592;DHT22;10958;50.892;3.992;2023-07-24T07:48:46;23.00;99.90
21592;DHT22;10958;50.892;3.992;2023-07-24T07:51:14;22.50;99.90
21592;DHT22;10958;50.892;3.992;2023-07-24T07:53:40;22.30;99.90
21592;DHT22;10958;50.892;3.992;2023-07-24T07:56:06;21.90;99.90
21592;DHT22;10958;50.892;3.992;2023-07-24T07:58:33;21.70;99.90
21592;DHT22;10958;50.892;3.992;2023-07-24T08:01:06;21.70;99.90
21592;DHT22;10958;50.892;3.992;2023-07-24T08:03:32;21.90;99.90
21592;DHT22;10958;50.892;3.992;2023-07-24T08:05:58;22.00;99.90
21592;DHT22;10958;50.892;3.992;2023-07-24T08:08:24;22.10;99.90
21592;DHT22;10958;50.892;3.992;2023-07-24T08:10:50;22.30;99.90
21592;DHT22;10958;50.892;3.992;2023-07-24T08:13:16;22.30;99.90
21592;DHT22;10958;50.892;3.992;2023-07-24T08:15:42;22.20;99.90
21592;DHT22;10958;50.892;3.992;2023-07-24T08:18:07;21.90;99.90
21592;DHT22;10958;50.892;3.992;2023-07-24T08:20:37;21.70;99.90
21592;DHT22;10958;50.892;3.992;2023-07-24T08:23:04;21.40;99.90
21592;DHT22;10958;50.892;3.992;2023-07-24T08:25:30;21.10;99.90
21592;DHT22;10958;50.892;3.992;2023-07-24T08:27:56;20.40;99.90
21592;DHT22;10958;50.892;3.992;2023-07-24T08:30:21;19.90;99.90
21592;DHT22;10958;50.892;3.992;2023-07-24T08:32:47;19.90;99.90
21592;DHT22;10958;50.892;3.992;2023-07-24T08:35:15;20.20;99.90
21592;DHT22;10958;50.892;3.992;2023-07-24T08:37:44;20.50;99.90
21592;DHT22;10958;50.892;3.992;2023-07-24T08:40:13;20.80;99.90
21592;DHT22;10958;50.892;3.992;2023-07-24T08:42:41;20.80;99.90
21592;DHT22;10958;50.892;3.992;2023-07-24T08:45:11;20.80;99.90
21592;DHT22;10958;50.892;3.992;2023-07-24T08:47:42;20.60;99.90
21592;DHT22;10958;50.892;3.992;2023-07-24T08:50:09;20.70;99.90
21592;DHT22;10958;50.892;3.992;2023-07-24T08:52:40;20.80;99.90
21592;DHT22;10958;50.892;3.992;2023-07-24T08:55:08;21.20;99.90
21592;DHT22;10958;50.892;3.992;2023-07-24T08:57:40;22.10;99.90
21592;DHT22;10958;50.892;3.992;2023-07-24T09:00:06;22.70;99.90
21592;DHT22;10958;50.892;3.992;2023-07-24T09:02:33;22.80;99.90
21592;DHT22;10958;50.892;3.992;2023-07-24T09:04:58;22.90;99.90
21592;DHT22;10958;50.892;3.992;2023-07-24T09:07:24;23.00;99.90
21592;DHT22;10958;50.892;3.992;2023-07-24T09:09:50;23.10;99.90
21592;DHT22;10958;50.892;3.992;2023-07-24T09:12:21;23.30;99.90
21592;DHT22;10958;50.892;3.992;2023-07-24T09:18:42;24.70;99.90
21592;DHT22;10958;50.892;3.992;2023-07-24T09:21:12;25.30;99.90
21592;DHT22;10958;50.892;3.992;2023-07-24T09:23:56;24.20;99.90
21592;DHT22;10958;50.892;3.992;2023-07-24T09:26:25;23.90;99.90
21592;DHT22;10958;50.892;3.992;2023-07-24T09:28:52;23.50;99.90
21592;DHT22;10958;50.892;3.992;2023-07-24T09:31:21;22.80;99.90
21592;DHT22;10958;50.892;3.992;2023-07-24T09:33:49;22.70;99.90
21592;DHT22;10958;50.892;3.992;2023-07-24T09:36:18;22.30;99.90
21592;DHT22;10958;50.892;3.992;2023-07-24T09:38:43;22.70;99.90
21592;DHT22;10958;50.892;3.992;2023-07-24T09:41:11;22.80;99.90
21592;DHT22;10958;50.892;3.992;2023-07-24T09:43:39;23.20;99.90
21592;DHT22;10958;50.892;3.992;2023-07-24T09:46:07;23.10;99.90
21592;DHT22;10958;50.892;3.992;2023-07-24T09:48:32;22.90;99.90
21592;DHT22;10958;50.892;3.992;2023-07-24T09:51:02;22.70;99.90
21592;DHT22;10958;50.892;3.992;2023-07-24T09:53:50;22.50;99.90
21592;DHT22;10958;50.892;3.992;2023-07-24T09:56:17;22.30;99.90
21592;DHT22;10958;50.892;3.992;2023-07-24T09:58:44;22.20;99.90
21592;DHT22;10958;50.892;3.992;2023-07-24T10:03:46;22.30;99.90
21592;DHT22;10958;50.892;3.992;2023-07-24T10:06:13;22.40;99.90
21592;DHT22;10958;50.892;3.992;2023-07-24T10:08:43;22.40;99.90
21592;DHT22;10958;50.892;3.992;2023-07-24T10:11:11;22.30;99.90
21592;DHT22;10958;50.892;3.992;2023-07-24T10:13:38;22.30;99.90
21592;DHT22;10958;50.892;3.992;2023-07-24T10:16:04;22.30;99.90
21592;DHT22;10958;50.892;3.992;2023-07-24T10:18:33;22.20;99.90
21592;DHT22;10958;50.892;3.992;2023-07-24T10:21:02;22.20;99.90
21592;DHT22;10958;50.892;3.992;2023-07-24T10:23:34;22.20;99.90
21592;DHT22;10958;50.892;3.992;2023-07-24T10:26:03;22.40;99.90
21592;DHT22;10958;50.892;3.992;2023-07-24T10:28:36;22.50;99.90
21592;DHT22;10958;50.892;3.992;2023-07-24T10:31:24;22.70;99.90
21592;DHT22;10958;50.892;3.992;2023-07-24T10:33:52;22.50;99.90
21592;DHT22;10958;50.892;3.992;2023-07-24T10:36:20;22.30;99.90
21592;DHT22;10958;50.892;3.992;2023-07-24T10:38:56;22.20;99.90
21592;DHT22;10958;50.892;3.992;2023-07-24T10:41:22;22.00;99.90
21592;DHT22;10958;50.892;3.992;2023-07-24T10:43:52;22.30;99.90
21592;DHT22;10958;50.892;3.992;2023-07-24T10:46:34;22.70;99.90
21592;DHT22;10958;50.892;3.992;2023-07-24T10:49:00;22.70;99.90
21592;DHT22;10958;50.892;3.992;2023-07-24T10:51:29;22.90;99.90
21592;DHT22;10958;50.892;3.992;2023-07-24T10:53:58;23.20;99.90
21592;DHT22;10958;50.892;3.992;2023-07-24T10:56:24;23.30;99.90
21592;DHT22;10958;50.892;3.992;2023-07-24T10:58:50;23.50;99.90
21592;DHT22;10958;50.892;3.992;2023-07-24T11:01:17;23.80;99.90
21592;DHT22;10958;50.892;3.992;2023-07-24T11:03:44;23.90;99.90
21592;DHT22;10958;50.892;3.992;2023-07-24T11:06:18;23.80;99.90
21592;DHT22;10958;50.892;3.992;2023-07-24T11:08:54;24.00;99.90
21592;DHT22;10958;50.892;3.992;2023-07-24T11:11:30;24.20;99.90
21592;DHT22;10958;50.892;3.992;2023-07-24T11:14:03;24.20;99.90
21592;DHT22;10958;50.892;3.992;2023-07-24T11:16:33;24.30;99.90
21592;DHT22;10958;50.892;3.992;2023-07-24T11:18:59;24.20;99.90
21592;DHT22;10958;50.892;3.992;2023-07-24T11:21:25;24.20;99.90
21592;DHT22;10958;50.892;3.992;2023-07-24T11:23:55;24.30;99.90
21592;DHT22;10958;50.892;3.992;2023-07-24T11:26:22;24.20;99.90
21592;DHT22;10958;50.892;3.992;2023-07-24T11:28:52;24.20;99.90
21592;DHT22;10958;50.892;3.992;2023-07-24T11:31:21;24.10;99.90
21592;DHT22;10958;50.892;3.992;2023-07-24T11:33:49;24.00;99.90
21592;DHT22;10958;50.892;3.992;2023-07-24T11:36:16;24.20;99.90
21592;DHT22;10958;50.892;3.992;2023-07-24T11:38:47;24.50;99.90
21592;DHT22;10958;50.892;3.992;2023-07-24T11:41:17;24.50;99.90
21592;DHT22;10958;50.892;3.992;2023-07-24T11:43:48;24.40;99.90
21592;DHT22;10958;50.892;3.992;2023-07-24T11:46:28;24.40;99.90
21592;DHT22;10958;50.892;3.992;2023-07-24T11:48:55;24.10;99.90
21592;DHT22;10958;50.892;3.992;2023-07-24T11:51:22;24.10;99.90
21592;DHT22;10958;50.892;3.992;2023-07-24T11:53:50;24.00;99.90
21592;DHT22;10958;50.892;3.992;2023-07-24T11:56:17;23.80;99.90
21592;DHT22;10958;50.892;3.992;2023-07-24T11:58:47;23.40;99.90
21592;DHT22;10958;50.892;3.992;2023-07-24T12:01:18;23.50;99.90
21592;DHT22;10958;50.892;3.992;2023-07-24T12:03:44;23.30;99.90
21592;DHT22;10958;50.892;3.992;2023-07-24T12:06:16;23.00;99.90
21592;DHT22;10958;50.892;3.992;2023-07-24T12:08:46;23.10;99.90
21592;DHT22;10958;50.892;3.992;2023-07-24T12:11:16;23.30;99.90
21592;DHT22;10958;50.892;3.992;2023-07-24T12:13:45;23.40;99.90
21592;DHT22;10958;50.892;3.992;2023-07-24T12:16:17;23.10;99.90
21592;DHT22;10958;50.892;3.992;2023-07-24T12:18:46;23.00;99.90
21592;DHT22;10958;50.892;3.992;2023-07-24T12:21:15;23.10;99.90
21592;DHT22;10958;50.892;3.992;2023-07-24T12:23:41;23.30;99.90
21592;DHT22;10958;50.892;3.992;2023-07-24T12:26:07;23.40;99.90
21592;DHT22;10958;50.892;3.992;2023-07-24T12:28:35;23.50;99.90
21592;DHT22;10958;50.892;3.992;2023-07-24T12:31:02;23.40;99.90
21592;DHT22;10958;50.892;3.992;2023-07-24T12:33:27;23.40;99.90
21592;DHT22;10958;50.892;3.992;2023-07-24T12:35:53;23.60;99.90
21592;DHT22;10958;50.892;3.992;2023-07-24T12:38:19;23.60;99.90
21592;DHT22;10958;50.892;3.992;2023-07-24T12:40:45;23.60;99.90
21592;DHT22;10958;50.892;3.992;2023-07-24T12:43:11;23.70;99.90
21592;DHT22;10958;50.892;3.992;2023-07-24T12:45:37;23.40;99.90
21592;DHT22;10958;50.892;3.992;2023-07-24T12:48:02;23.30;99.90
21592;DHT22;10958;50.892;3.992;2023-07-24T12:50:29;23.40;99.90
21592;DHT22;10958;50.892;3.992;2023-07-24T12:52:58;23.40;99.90
21592;DHT22;10958;50.892;3.992;2023-07-24T12:55:24;23.60;99.90
21592;DHT22;10958;50.892;3.992;2023-07-24T12:57:50;23.70;99.90
21592;DHT22;10958;50.892;3.992;2023-07-24T13:00:19;23.60;99.90
21592;DHT22;10958;50.892;3.992;2023-07-24T13:02:45;23.50;99.90
21592;DHT22;10958;50.892;3.992;2023-07-24T13:05:11;23.00;99.90
21592;DHT22;10958;50.892;3.992;2023-07-24T13:07:37;22.70;99.90
21592;DHT22;10958;50.892;3.992;2023-07-24T13:10:04;22.90;99.90
21592;DHT22;10958;50.892;3.992;2023-07-24T13:12:33;23.10;99.90
21592;DHT22;10958;50.892;3.992;2023-07-24T13:15:00;23.00;99.90
21592;DHT22;10958;50.892;3.992;2023-07-24T13:17:26;23.20;99.90
21592;DHT22;10958;50.892;3.992;2023-07-24T13:19:52;23.30;99.90
21592;DHT22;10958;50.892;3.992;2023-07-24T13:22:18;23.30;99.90
21592;DHT22;10958;50.892;3.992;2023-07-24T13:24:43;23.00;99.90
21592;DHT22;10958;50.892;3.992;2023-07-24T13:27:09;23.10;99.90
21592;DHT22;10958;50.892;3.992;2023-07-24T13:29:37;23.30;99.90
21592;DHT22;10958;50.892;3.992;2023-07-24T13:32:03;23.30;99.90
21592;DHT22;10958;50.892;3.992;2023-07-24T13:34:29;23.30;99.90
21592;DHT22;10958;50.892;3.992;2023-07-24T13:36:58;23.30;99.90
21592;DHT22;10958;50.892;3.992;2023-07-24T13:39:24;23.00;99.90
21592;DHT22;10958;50.892;3.992;2023-07-24T13:41:53;23.10;99.90
21592;DHT22;10958;50.892;3.992;2023-07-24T13:44:21;23.20;99.90
21592;DHT22;10958;50.892;3.992;2023-07-24T13:46:47;23.40;99.90
21592;DHT22;10958;50.892;3.992;2023-07-24T13:49:15;23.50;99.90
21592;DHT22;10958;50.892;3.992;2023-07-24T13:51:41;23.50;99.90
21592;DHT22;10958;50.892;3.992;2023-07-24T13:54:07;23.50;99.90
21592;DHT22;10958;50.892;3.992;2023-07-24T13:56:33;23.40;99.90
21592;DHT22;10958;50.892;3.992;2023-07-24T13:59:01;23.50;99.90
21592;DHT22;10958;50.892;3.992;2023-07-24T14:01:27;23.70;99.90
21592;DHT22;10958;50.892;3.992;2023-07-24T14:03:53;24.00;99.90
21592;DHT22;10958;50.892;3.992;2023-07-24T14:06:24;24.00;99.90
21592;DHT22;10958;50.892;3.992;2023-07-24T14:08:53;24.00;99.90
21592;DHT22;10958;50.892;3.992;2023-07-24T14:11:19;23.40;99.90
21592;DHT22;10958;50.892;3.992;2023-07-24T14:13:45;22.80;99.90
21592;DHT22;10958;50.892;3.992;2023-07-24T14:16:12;22.70;99.90
21592;DHT22;10958;50.892;3.992;2023-07-24T14:18:40;22.40;99.90
21592;DHT22;10958;50.892;3.992;2023-07-24T14:21:11;21.90;99.90
21592;DHT22;10958;50.892;3.992;2023-07-24T14:23:39;21.30;99.90
21592;DHT22;10958;50.892;3.992;2023-07-24T14:26:06;20.80;99.90
21592;DHT22;10958;50.892;3.992;2023-07-24T14:28:32;20.60;99.90
21592;DHT22;10958;50.892;3.992;2023-07-24T14:31:00;20.40;99.90
21592;DHT22;10958;50.892;3.992;2023-07-24T14:33:28;20.50;99.90
21592;DHT22;10958;50.892;3.992;2023-07-24T14:35:54;20.30;99.90
21592;DHT22;10958;50.892;3.992;2023-07-24T14:38:20;20.10;99.90
21592;DHT22;10958;50.892;3.992;2023-07-24T14:40:46;19.80;99.90
21592;DHT22;10958;50.892;3.992;2023-07-24T14:43:12;19.00;99.90
21592;DHT22;10958;50.892;3.992;2023-07-24T14:45:38;18.50;99.90
21592;DHT22;10958;50.892;3.992;2023-07-24T14:48:05;18.50;99.90
21592;DHT22;10958;50.892;3.992;2023-07-24T14:50:34;18.80;99.90
21592;DHT22;10958;50.892;3.992;2023-07-24T14:53:00;19.20;99.90
21592;DHT22;10958;50.892;3.992;2023-07-24T14:55:26;19.60;99.90
21592;DHT22;10958;50.892;3.992;2023-07-24T14:57:53;20.00;99.90
21592;DHT22;10958;50.892;3.992;2023-07-24T15:00:22;20.50;99.90
21592;DHT22;10958;50.892;3.992;2023-07-24T15:02:50;21.00;99.90
21592;DHT22;10958;50.892;3.992;2023-07-24T15:05:16;21.10;99.90
21592;DHT22;10958;50.892;3.992;2023-07-24T15:07:43;21.30;99.90
21592;DHT22;10958;50.892;3.992;2023-07-24T15:10:09;21.40;99.90
21592;DHT22;10958;50.892;3.992;2023-07-24T15:12:37;21.40;99.90
21592;DHT22;10958;50.892;3.992;2023-07-24T15:15:03;21.50;99.90
21592;DHT22;10958;50.892;3.992;2023-07-24T15:17:30;21.60;99.90
21592;DHT22;10958;50.892;3.992;2023-07-24T15:19:58;21.70;99.90
21592;DHT22;10958;50.892;3.992;2023-07-24T15:22:27;21.80;99.90
21592;DHT22;10958;50.892;3.992;2023-07-24T15:24:55;21.60;99.90
21592;DHT22;10958;50.892;3.992;2023-07-24T15:27:22;21.50;99.90
21592;DHT22;10958;50.892;3.992;2023-07-24T15:29:48;21.60;99.90
21592;DHT22;10958;50.892;3.992;2023-07-24T15:32:14;21.50;99.90
21592;DHT22;10958;50.892;3.992;2023-07-24T15:34:40;21.50;99.90
21592;DHT22;10958;50.892;3.992;2023-07-24T15:37:11;21.60;99.90